Time;durP1;ratioP1;P1;durP2;ratioP2;P2;SDS_P1;SDS_P2;PMS_P1;PMS_P2;Temp;Humidity;BMP_temperature;BMP_pressure;BME280_temperature;BME280_humidity;BME280_pressure;Samples;Min_cycle;Max_cycle;Signal;HPM_P1;HPM_P2
2023/05/01 00:00:47;;;;;;;14.68;6.05;;;;;;;;;;4884500;29;20405;-69
2023/05/01 00:03:14;;;;;;;8.77;5.35;;;;;;;;;;4903299;29;20131;-69
2023/05/01 00:05:40;;;;;;;10.43;5.90;;;;;;;;;;4903913;29;20047;-69
2023/05/01 00:08:06;;;;;;;9.55;5.43;;;;;;;;;;4903871;29;20047;-69
2023/05/01 00:10:35;;;;;;;11.73;5.55;;;;;;;;;;4920873;29;20083;-69
2023/05/01 00:13:01;;;;;;;10.40;6.00;;;;;;;;;;4920848;29;20059;-69
2023/05/01 00:15:27;;;;;;;11.32;5.97;;;;;;;;;;4888521;29;20039;-68
2023/05/01 00:17:53;;;;;;;9.70;5.63;;;;;;;;;;4904015;29;20115;-69
2023/05/01 00:20:20;;;;;;;9.15;5.53;;;;;;;;;;4903805;29;20040;-69
2023/05/01 00:22:46;;;;;;;10.60;5.47;;;;;;;;;;4904012;29;20048;-69
2023/05/01 00:25:12;;;;;;;13.57;5.82;;;;;;;;;;4920557;29;20501;-69
2023/05/01 00:27:38;;;;;;;9.95;5.85;;;;;;;;;;4903714;29;20047;-69
2023/05/01 00:30:05;;;;;;;9.90;6.05;;;11.50;99.90;;;;;;4903523;29;20052;-69
2023/05/01 00:32:30;;;;;;;8.73;5.47;;;9.60;99.90;;;;;;4903654;29;20512;-68
2023/05/01 00:34:57;;;;;;;11.40;5.65;;;;;;;;;;4903397;29;20122;-69
2023/05/01 00:37:23;;;;;;;13.07;6.10;;;;;;;;;;4903599;29;20111;-69
2023/05/01 00:39:49;;;;;;;9.55;5.90;;;;;;;;;;4887803;29;20099;-69
2023/05/01 00:42:15;;;;;;;11.15;5.75;;;;;;;;;;4920216;29;20131;-70
2023/05/01 00:44:42;;;;;;;11.55;6.28;;;;;;;;;;4920201;29;20040;-70
2023/05/01 00:47:09;;;;;;;10.70;5.63;;;;;;;;;;4903168;29;20535;-70
2023/05/01 00:49:35;;;;;;;10.57;6.00;;;;;;;;;;4903219;29;20055;-70
2023/05/01 00:52:01;;;;;;;9.23;5.72;;;;;;;;;;4887914;29;20108;-70
2023/05/01 00:54:28;;;;;;;9.13;5.57;;;;;;;;;;4903329;29;20044;-70
2023/05/01 00:56:54;;;;;;;9.10;5.80;;;;;;;;;;4903177;29;20044;-70
2023/05/01 00:59:21;;;;;;;11.75;5.82;;;;;;;;;;4902975;29;20493;-70
2023/05/01 01:01:47;;;;;;;9.85;6.10;;;;;;;;;;4902967;29;20040;-70
2023/05/01 01:04:13;;;;;;;11.20;5.88;;;;;;;;;;4920194;29;20051;-70
2023/05/01 01:06:44;;;;;;;9.38;5.68;;;10.10;99.90;;;;;;4919805;29;20498;-70
2023/05/01 01:09:37;;;;;;;10.20;5.77;;;10.00;99.90;;;;;;4902762;29;20055;-70
2023/05/01 01:12:08;;;;;;;8.85;5.32;;;;;;;;;;4902996;29;20051;-71
2023/05/01 01:14:48;;;;;;;8.55;5.32;;;10.00;99.90;;;;;;4902159;29;20048;-68
2023/05/01 01:17:23;;;;;;;8.38;5.35;;;;;;;;;;4902937;29;20070;-69
2023/05/01 01:19:55;;;;;;;9.30;5.75;;;;;;;;;;4902935;29;20044;-69
2023/05/01 01:22:24;;;;;;;9.93;5.35;;;9.90;99.90;;;;;;4919466;29;20133;-68
2023/05/01 01:25:11;;;;;;;9.40;5.40;;;10.10;99.90;;;;;;4902591;29;20523;-69
2023/05/01 01:27:56;;;;;;;9.27;5.53;;;;;;;;;;4902746;29;20048;-70
2023/05/01 01:30:32;;;;;;;9.85;5.55;;;;;;;;;;4902288;29;20052;-70
2023/05/01 01:33:04;;;;;;;7.97;5.25;;;;;;;;;;4902388;29;20059;-69
2023/05/01 01:35:31;;;;;;;8.80;5.05;;;10.00;99.90;;;;;;4902509;29;20087;-69
2023/05/01 01:38:02;;;;;;;8.10;5.55;;;;;;;;;;4902252;29;20044;-70
2023/05/01 01:40:41;;;;;;;8.27;5.28;;;10.00;99.90;;;;;;4902626;29;20188;-69
2023/05/01 01:43:12;;;;;;;10.98;5.57;;;9.80;99.90;;;;;;4902694;29;20040;-70
2023/05/01 01:45:48;;;;;;;9.25;5.50;;;9.80;99.90;;;;;;4902298;29;20048;-69
2023/05/01 01:48:20;;;;;;;7.72;5.60;;;9.60;99.90;;;;;;4902125;29;20052;-69
2023/05/01 01:50:47;;;;;;;7.95;5.43;;;;;;;;;;4902342;29;20044;-69
2023/05/01 01:53:17;;;;;;;9.98;5.15;;;9.60;99.90;;;;;;4886640;29;20047;-70
2023/05/01 01:55:44;;;;;;;9.82;5.88;;;9.70;99.90;;;;;;4901928;29;20598;-69
2023/05/01 01:58:12;;;;;;;8.05;5.38;;;9.70;99.90;;;;;;4918976;29;20052;-69
2023/05/01 02:00:41;;;;;;;9.52;5.65;;;9.70;99.90;;;;;;4918821;29;20040;-70
2023/05/01 02:03:09;;;;;;;12.75;6.25;;;9.80;99.90;;;;;;4901830;29;20552;-70
2023/05/01 02:05:37;;;;;;;8.50;5.95;;;9.90;99.90;;;;;;4901995;29;20502;-70
2023/05/01 02:08:04;;;;;;;9.98;4.93;;;9.70;99.90;;;;;;4901854;29;20044;-70
2023/05/01 02:10:32;;;;;;;7.80;5.43;;;9.60;99.90;;;;;;4918962;29;20092;-70
2023/05/01 02:12:59;;;;;;;10.00;5.60;;;;;;;;;;4886150;29;20103;-70
2023/05/01 02:15:26;;;;;;;9.50;5.10;;;9.60;99.90;;;;;;4918740;29;20553;-71
2023/05/01 02:17:53;;;;;;;8.55;5.25;;;9.50;99.90;;;;;;4901673;29;20048;-71
2023/05/01 02:20:20;;;;;;;8.02;5.18;;;9.50;99.90;;;;;;4901740;29;20490;-71
2023/05/01 02:22:47;;;;;;;10.38;5.28;;;;;;;;;;4901961;29;20067;-70
2023/05/01 02:25:15;;;;;;;8.98;5.28;;;;;;;;;;4901505;29;20055;-70
2023/05/01 02:27:49;;;;;;;9.43;5.18;;;9.40;99.90;;;;;;4901614;29;20079;-70
2023/05/01 02:30:17;;;;;;;10.40;6.28;;;;;;;;;;4901123;29;20072;-70
2023/05/01 02:32:43;;;;;;;8.55;5.53;;;;;;;;;;4885878;29;20132;-70
2023/05/01 02:35:10;;;;;;;9.70;5.43;;;;;;;;;;4901430;29;20100;-70
2023/05/01 02:37:37;;;;;;;8.50;5.03;;;9.40;99.90;;;;;;4918278;29;20508;-70
2023/05/01 02:40:03;;;;;;;11.05;5.70;;;;;;;;;;4901335;29;20052;-70
2023/05/01 02:42:31;;;;;;;12.38;5.63;;;;;;;;;;4901195;29;20098;-70
2023/05/01 02:44:59;;;;;;;9.63;5.22;;;;;;;;;;4885711;29;20047;-70
2023/05/01 02:47:27;;;;;;;12.32;5.60;;;;;;;;;;4901263;29;20365;-70
2023/05/01 02:49:54;;;;;;;7.65;4.90;;;9.40;99.90;;;;;;4885806;29;20389;-70
2023/05/01 02:52:24;;;;;;;7.47;5.38;;;;;;;;;;4901028;29;20051;-70
2023/05/01 02:54:50;;;;;;;7.93;4.68;;;;;;;;;;4900991;29;20044;-70
2023/05/01 02:57:17;;;;;;;9.13;5.63;;;9.30;99.90;;;;;;4900875;29;20477;-70
2023/05/01 02:59:43;;;;;;;8.40;5.25;;;;;;;;;;4900969;29;20397;-69
2023/05/01 03:02:09;;;;;;;6.95;5.53;;;;;;;;;;4900974;29;20040;-69
2023/05/01 03:04:35;;;;;;;11.55;5.50;;;;;;;;;;4885326;29;20131;-68
2023/05/01 03:07:01;;;;;;;8.95;5.70;;;;;;;;;;4900794;29;20088;-68
2023/05/01 03:09:27;;;;;;;8.77;5.18;;;;;;;;;;4901106;29;20090;-69
2023/05/01 03:11:53;;;;;;;11.23;6.03;;;;;;;;;;4900754;29;20126;-68
2023/05/01 03:14:19;;;;;;;8.20;5.03;;;;;;;;;;4885241;29;20493;-68
2023/05/01 03:16:45;;;;;;;12.68;5.70;;;;;;;;;;4900532;29;20536;-70
2023/05/01 03:19:11;;;;;;;8.13;5.18;;;;;;;;;;4900723;29;20054;-69
2023/05/01 03:21:37;;;;;;;11.05;5.32;;;;;;;;;;4900463;29;20048;-69
2023/05/01 03:24:04;;;;;;;10.07;4.95;;;;;;;;;;4900496;29;20182;-69
2023/05/01 03:26:31;;;;;;;9.02;5.38;;;;;;;;;;4900789;29;20497;-68
2023/05/01 03:28:58;;;;;;;7.70;5.60;;;;;;;;;;4884653;29;20390;-70
2023/05/01 03:31:24;;;;;;;12.77;5.18;;;;;;;;;;4900286;29;20059;-70
2023/05/01 03:33:50;;;;;;;8.82;5.45;;;;;;;;;;4900481;29;20430;-70
2023/05/01 03:36:16;;;;;;;10.80;5.70;;;;;;;;;;4900356;29;20075;-70
2023/05/01 03:38:42;;;;;;;9.35;5.55;;;;;;;;;;4900113;29;20043;-70
2023/05/01 03:41:08;;;;;;;7.75;5.47;;;;;;;;;;4900462;29;20438;-70
2023/05/01 03:43:34;;;;;;;10.18;5.35;;;;;;;;;;4900229;29;20048;-71
2023/05/01 03:46:01;;;;;;;8.05;4.90;;;;;;;;;;4900367;29;20520;-71
2023/05/01 03:48:27;;;;;;;8.00;5.30;;;;;;;;;;4884756;29;20040;-71
2023/05/01 03:50:53;;;;;;;10.65;5.60;;;;;;;;;;4917137;29;20047;-70
2023/05/01 03:53:19;;;;;;;14.15;5.88;;;;;;;;;;4884573;29;20055;-71
2023/05/01 03:55:45;;;;;;;10.55;5.63;;;;;;;;;;4917291;29;20040;-71
2023/05/01 03:58:11;;;;;;;11.70;4.93;;;;;;;;;;4900080;29;20080;-70
2023/05/01 04:00:37;;;;;;;8.15;5.70;;;;;;;;;;4900255;29;20059;-71
2023/05/01 04:03:04;;;;;;;8.30;5.18;;;;;;;;;;4900223;29;20505;-70
2023/05/01 04:05:30;;;;;;;9.43;5.20;;;;;;;;;;4899901;29;20184;-71
2023/05/01 04:07:56;;;;;;;11.38;5.35;;;;;;;;;;4900014;29;20095;-70
2023/05/01 04:10:23;;;;;;;11.45;5.63;;;;;;;;;;4900236;29;20052;-71
2023/05/01 04:12:49;;;;;;;11.18;5.82;;;;;;;;;;4900277;29;20050;-71
2023/05/01 04:15:15;;;;;;;13.30;5.40;;;;;;;;;;4884348;29;20048;-70
2023/05/01 04:17:42;;;;;;;6.55;4.70;;;;;;;;;;4899859;29;20059;-71
2023/05/01 04:20:09;;;;;;;9.50;5.55;;;9.20;99.90;;;;;;4900116;29;20048;-71
2023/05/01 04:22:36;;;;;;;11.65;5.65;;;;;;;;;;4916810;29;20041;-70
2023/05/01 04:25:03;;;;;;;9.38;5.35;;;;;;;;;;4899876;29;20549;-71
2023/05/01 04:27:29;;;;;;;8.02;5.10;;;;;;;;;;4899583;29;20048;-71
2023/05/01 04:29:56;;;;;;;7.85;5.43;;;;;;;;;;4899487;29;20052;-71
2023/05/01 04:32:22;;;;;;;9.75;5.63;;;;;;;;;;4899823;29;20473;-71
2023/05/01 04:34:48;;;;;;;12.23;5.95;;;;;;;;;;4884346;29;20044;-71
2023/05/01 04:37:16;;;;;;;7.40;5.28;;;;;;;;;;4899700;29;20083;-70
2023/05/01 04:39:43;;;;;;;8.25;5.15;;;;;;;;;;4899831;29;20462;-69
2023/05/01 04:42:09;;;;;;;10.50;5.90;;;;;;;;;;4916636;29;20040;-69
2023/05/01 04:44:36;;;;;;;13.98;6.90;;;;;;;;;;4899954;29;20047;-69
2023/05/01 04:47:05;;;;;;;11.00;5.30;;;;;;;;;;4899392;29;20106;-69
2023/05/01 04:49:31;;;;;;;16.10;6.03;;;;;;;;;;4901227;29;20044;-69
2023/05/01 04:51:57;;;;;;;8.85;5.57;;;;;;;;;;4903186;29;20086;-69
2023/05/01 04:54:24;;;;;;;9.55;5.20;;;;;;;;;;4903517;29;20135;-69
2023/05/01 04:56:50;;;;;;;9.90;5.25;;;;;;;;;;4903244;29;20040;-69
2023/05/01 04:59:16;;;;;;;10.00;5.57;;;;;;;;;;4903025;29;20485;-69
2023/05/01 05:01:43;;;;;;;9.73;5.63;;;;;;;;;;4903070;29;20084;-69
2023/05/01 05:04:09;;;;;;;7.65;5.07;;;;;;;;;;4887548;29;20048;-70
2023/05/01 05:06:35;;;;;;;11.35;6.30;;;;;;;;;;4902895;29;20401;-70
2023/05/01 05:09:01;;;;;;;10.80;5.97;;;;;;;;;;4902755;29;20131;-69
2023/05/01 05:11:27;;;;;;;10.10;5.47;;;;;;;;;;4902783;29;20052;-69
2023/05/01 05:13:53;;;;;;;9.82;6.10;;;;;;;;;;4919888;29;20048;-70
2023/05/01 05:16:19;;;;;;;11.30;5.63;;;;;;;;;;4902694;29;20091;-71
2023/05/01 05:18:45;;;;;;;14.00;6.15;;;;;;;;;;4902685;29;20493;-70
2023/05/01 05:21:11;;;;;;;10.45;6.13;;;;;;;;;;4903044;29;20108;-70
2023/05/01 05:23:37;;;;;;;9.63;5.95;;;;;;;;;;4902760;29;20078;-69
2023/05/01 05:26:04;;;;;;;13.88;6.70;;;10.00;99.90;;;;;;4886878;29;20052;-69
2023/05/01 05:28:30;;;;;;;13.35;5.63;;;;;;;;;;4902792;29;20394;-69
2023/05/01 05:30:56;;;;;;;12.05;6.10;;;;;;;;;;4919364;29;20076;-69
2023/05/01 05:33:26;;;;;;;9.02;5.93;;;;;;;;;;4902524;29;20052;-69
2023/05/01 05:35:52;;;;;;;10.25;6.38;;;;;;;;;;4902372;29;20087;-69
2023/05/01 05:38:18;;;;;;;9.65;5.97;;;;;;;;;;4902160;29;20103;-71
2023/05/01 05:40:44;;;;;;;10.07;5.63;;;;;;;;;;4919500;29;20127;-71
2023/05/01 05:43:10;;;;;;;9.73;5.50;;;;;;;;;;4887004;29;20127;-70
2023/05/01 05:45:37;;;;;;;10.93;5.97;;;;;;;;;;4902349;29;20115;-71
2023/05/01 05:48:03;;;;;;;11.27;5.50;;;;;;;;;;4902204;29;20157;-70
2023/05/01 05:50:29;;;;;;;9.38;5.97;;;;;;;;;;4919253;29;20175;-70
2023/05/01 05:52:55;;;;;;;9.48;5.40;;;;;;;;;;4902206;29;20075;-70
2023/05/01 05:55:21;;;;;;;12.98;6.15;;;;;;;;;;4902030;29;20524;-70
2023/05/01 05:57:48;;;;;;;9.25;5.35;;;;;;;;;;4902056;29;20130;-70
2023/05/01 06:00:14;;;;;;;15.10;6.43;;;9.00;99.90;;;;;;4918910;29;20495;-69
2023/05/01 06:02:40;;;;;;;9.88;5.72;;;;;;;;;;4918898;29;20036;-70
2023/05/01 06:05:07;;;;;;;11.98;6.00;;;;;;;;;;4886596;29;20048;-70
2023/05/01 06:07:33;;;;;;;9.95;5.60;;;;;;;;;;4901754;29;20102;-70
2023/05/01 06:10:03;;;;;;;13.27;6.38;;;;;;;;;;4901791;29;20044;-71
2023/05/01 06:12:30;;;;;;;8.10;6.18;;;;;;;;;;4918699;29;20394;-70
2023/05/01 06:14:58;;;;;;;11.20;5.72;;;9.70;99.90;;;;;;4901778;29;20108;-70
2023/05/01 06:17:24;;;;;;;10.85;5.97;;;;;;;;;;4901983;29;20056;-70
2023/05/01 06:19:52;;;;;;;12.98;6.20;;;;;;;;;;4901732;29;20091;-70
2023/05/01 06:22:21;;;;;;;11.18;6.18;;;;;;;;;;4901830;29;20048;-70
2023/05/01 06:24:47;;;;;;;11.02;6.10;;;;;;;;;;4901541;29;20055;-70
2023/05/01 06:27:13;;;;;;;8.85;5.70;;;;;;;;;;4918377;29;20040;-70
2023/05/01 06:29:39;;;;;;;16.83;6.35;;;;;;;;;;4901413;29;20539;-68
2023/05/01 06:32:06;;;;;;;12.25;6.95;;;;;;;;;;4901368;29;20485;-69
2023/05/01 06:34:32;;;;;;;10.30;5.50;;;;;;;;;;4901648;29;20079;-70
2023/05/01 06:36:58;;;;;;;14.35;7.68;;;;;;;;;;4885786;29;20107;-70
2023/05/01 06:39:25;;;;;;;10.98;6.75;;;;;;;;;;4901360;29;20090;-70
2023/05/01 06:41:51;;;;;;;9.07;6.15;;;;;;;;;;4901284;29;20048;-70
2023/05/01 06:44:17;;;;;;;10.25;6.90;;;;;;;;;;4901176;29;20055;-70
2023/05/01 06:46:43;;;;;;;13.27;6.72;;;;;;;;;;4901174;29;20052;-70
2023/05/01 06:49:09;;;;;;;9.35;5.97;;;;;;;;;;4900932;29;20516;-70
2023/05/01 06:51:35;;;;;;;14.38;6.90;;;;;;;;;;4901246;29;20587;-70
2023/05/01 06:54:01;;;;;;;10.10;6.53;;;;;;;;;;4901107;29;20123;-71
2023/05/01 06:56:27;;;;;;;12.88;6.65;;;;;;;;;;4901140;29;20507;-70
2023/05/01 06:58:53;;;;;;;7.53;5.32;;;;;;;;;;4901346;29;20195;-70
2023/05/01 07:01:20;;;;;;;8.85;6.20;;;;;;;;;;4900810;29;20044;-70
2023/05/01 07:03:46;;;;;;;10.40;6.22;;;;;;;;;;4885384;29;20048;-70
2023/05/01 07:06:12;;;;;;;9.20;5.15;;;;;;;;;;4885245;29;20071;-70
2023/05/01 07:08:38;;;;;;;12.18;6.20;;;;;;;;;;4900732;29;20073;-71
2023/05/01 07:11:04;;;;;;;8.77;6.05;;;;;;;;;;4917677;29;20043;-70
2023/05/01 07:13:30;;;;;;;11.20;6.60;;;;;;;;;;4917523;29;20468;-70
2023/05/01 07:15:57;;;;;;;13.20;6.28;;;;;;;;;;4917845;29;20070;-71
2023/05/01 07:18:23;;;;;;;14.18;6.50;;;;;;;;;;4917586;29;20052;-71
2023/05/01 07:20:49;;;;;;;16.02;6.18;;;;;;;;;;4885223;29;20135;-71
2023/05/01 07:23:15;;;;;;;15.63;6.40;;;;;;;;;;4900616;29;20055;-71
2023/05/01 07:25:43;;;;;;;12.73;6.57;;;;;;;;;;4900862;29;20040;-71
2023/05/01 07:28:09;;;;;;;8.60;5.68;;;;;;;;;;4900603;29;20051;-70
2023/05/01 07:30:36;;;;;;;14.93;7.03;;;11.80;99.90;;;;;;4900370;29;20056;-71
2023/05/01 07:33:04;;;;;;;10.15;6.07;;;;;;;;;;4900293;29;20496;-69
2023/05/01 07:35:30;;;;;;;11.02;6.28;;;;;;;;;;4900267;29;20048;-69
2023/05/01 07:37:56;;;;;;;11.43;6.00;;;;;;;;;;4917437;29;20043;-69
2023/05/01 07:40:22;;;;;;;8.10;6.05;;;;;;;;;;4884935;29;20048;-70
2023/05/01 07:42:48;;;;;;;11.90;6.30;;;;;;;;;;4917373;29;20043;-70
2023/05/01 07:45:15;;;;;;;9.80;5.70;;;;;;;;;;4900652;29;20051;-70
2023/05/01 07:47:41;;;;;;;10.15;6.20;;;;;;;;;;4917292;29;20044;-70
2023/05/01 07:50:10;;;;;;;21.15;6.53;;;;;;;;;;4900226;29;20067;-70
2023/05/01 07:52:37;;;;;;;12.40;6.00;;;;;;;;;;4899989;29;20055;-70
2023/05/01 07:55:04;;;;;;;10.88;5.43;;;;;;;;;;4899887;29;20047;-70
2023/05/01 07:57:32;;;;;;;9.50;4.82;;;;;;;;;;4900154;29;20080;-70
2023/05/01 07:59:58;;;;;;;11.23;5.25;;;;;;;;;;4900103;29;20048;-70
2023/05/01 08:02:24;;;;;;;8.13;4.90;;;;;;;;;;4900047;29;20086;-70
2023/05/01 08:04:51;;;;;;;9.18;4.75;;;;;;;;;;4900254;29;20106;-70
2023/05/01 08:07:17;;;;;;;8.02;4.40;;;;;;;;;;4899609;29;20139;-70
2023/05/01 08:09:43;;;;;;;10.15;4.53;;;;;;;;;;4899669;29;20083;-70
2023/05/01 08:12:09;;;;;;;13.00;4.00;;;;;;;;;;4899871;29;20047;-70
2023/05/01 08:14:35;;;;;;;11.23;4.85;;;;;;;;;;4916607;29;20460;-70
2023/05/01 08:17:01;;;;;;;10.15;4.57;;;;;;;;;;4899983;29;20048;-69
2023/05/01 08:19:27;;;;;;;9.55;4.68;;;;;;;;;;4916891;29;20095;-69
2023/05/01 08:21:53;;;;;;;7.25;4.10;;;;;;;;;;4899800;29;20556;-69
2023/05/01 08:24:20;;;;;;;11.65;4.68;;;;;;;;;;4902872;29;20055;-69
2023/05/01 08:26:47;;;;;;;11.38;4.50;;;;;;;;;;4920623;29;20044;-69
2023/05/01 08:29:13;;;;;;;10.93;4.85;;;;;;;;;;4920407;29;20378;-69
2023/05/01 08:31:42;;;;;;;12.82;5.05;;;;;;;;;;4920241;29;20059;-69
2023/05/01 08:34:08;;;;;;;10.15;4.55;;;;;;;;;;4903424;29;20084;-69
2023/05/01 08:36:34;;;;;;;10.32;3.78;;;;;;;;;;4903392;29;20497;-70
2023/05/01 08:39:00;;;;;;;8.20;4.43;;;;;;;;;;4920371;29;20040;-70
2023/05/01 08:41:27;;;;;;;5.90;3.70;;;13.80;99.90;;;;;;4920346;29;20055;-70
2023/05/01 08:43:57;;;;;;;6.15;3.45;;;13.80;99.90;;;;;;4888033;29;20044;-70
2023/05/01 08:46:37;;;;;;;6.63;3.65;;;13.90;99.90;;;;;;4903335;29;20474;-70
2023/05/01 08:49:04;;;;;;;11.10;4.18;;;14.10;99.90;;;;;;4903106;29;20409;-70
2023/05/01 08:51:30;;;;;;;9.45;4.07;;;;;;;;;;4903138;29;20048;-70
2023/05/01 08:53:58;;;;;;;6.63;3.30;;;14.20;99.90;;;;;;4887486;29;20048;-70
2023/05/01 08:56:25;;;;;;;12.70;3.72;;;;;;;;;;4920030;29;20040;-70
2023/05/01 08:58:52;;;;;;;6.60;3.83;;;14.30;99.90;;;;;;4887719;29;20370;-70
2023/05/01 09:01:20;;;;;;;9.00;4.03;;;14.70;99.90;;;;;;4903038;29;20460;-70
2023/05/01 09:03:48;;;;;;;7.85;3.83;;;;;;;;;;4903092;29;20358;-70
2023/05/01 09:06:14;;;;;;;11.35;3.85;;;;;;;;;;4902952;29;20401;-70
2023/05/01 09:08:40;;;;;;;8.82;4.10;;;;;;;;;;4887025;29;20176;-70
2023/05/01 09:11:06;;;;;;;8.85;3.80;;;;;;;;;;4902608;29;20040;-70
2023/05/01 09:13:32;;;;;;;6.82;4.03;;;;;;;;;;4919716;29;20044;-70
2023/05/01 09:15:59;;;;;;;8.85;4.03;;;;;;;;;;4919756;29;20044;-70
2023/05/01 09:18:26;;;;;;;10.80;3.47;;;15.60;99.90;;;;;;4902671;29;20048;-70
2023/05/01 09:20:53;;;;;;;6.55;3.42;;;15.40;99.90;;;;;;4902631;29;20050;-69
2023/05/01 09:23:20;;;;;;;9.13;3.20;;;;;;;;;;4902457;29;20123;-69
2023/05/01 09:25:46;;;;;;;7.75;3.60;;;;;;;;;;4886830;29;20780;-70
2023/05/01 09:28:12;;;;;;;7.78;3.40;;;;;;;;;;4887117;29;20055;-70
2023/05/01 09:30:38;;;;;;;6.68;3.25;;;16.10;99.90;;;;;;4902387;29;20521;-70
2023/05/01 09:33:08;;;;;;;5.25;3.13;;;14.80;99.90;;;;;;4886830;29;20554;-69
2023/05/01 09:35:55;;;;;;;6.07;3.42;;;15.30;99.90;;;;;;4901974;29;20050;-70
2023/05/01 09:38:22;;;;;;;5.97;2.55;;;;;;;;;;4886859;29;20067;-70
2023/05/01 09:40:48;;;;;;;5.75;2.90;;;;;;;;;;4902326;29;20500;-70
2023/05/01 09:43:24;;;;;;;5.97;3.00;;;;;;;;;;4919238;29;20079;-70
2023/05/01 09:46:10;;;;;;;8.98;3.20;;;16.30;99.90;;;;;;4902629;29;20056;-70
2023/05/01 09:48:36;;;;;;;8.23;3.17;;;;;;;;;;4886586;29;20048;-70
2023/05/01 09:51:26;;;;;;;6.80;3.03;;;16.40;99.90;;;;;;4902866;29;20362;-70
2023/05/01 09:53:58;;;;;;;10.15;3.30;;;16.30;99.90;;;;;;4890900;29;20556;-70
2023/05/01 09:56:25;;;;;;;7.13;2.63;;;;;;;;;;4902399;29;20059;-70
2023/05/01 09:58:52;;;;;;;7.88;3.38;;;;;;;;;;4901937;29;20058;-70
2023/05/01 10:01:39;;;;;;;7.32;2.42;;;16.20;99.90;;;;;;4901846;29;20048;-70
2023/05/01 10:04:05;;;;;;;9.18;2.70;;;;;;;;;;4901585;29;20058;-70
2023/05/01 10:06:31;;;;;;;5.28;2.33;;;;;;;;;;4902114;29;20051;-70
2023/05/01 10:08:57;;;;;;;5.60;2.47;;;;;;;;;;4918698;29;20087;-70
2023/05/01 10:11:25;;;;;;;5.03;2.47;;;;;;;;;;4901771;29;20055;-70
2023/05/01 10:14:10;;;;;;;6.50;2.30;;;17.00;99.90;;;;;;4886631;29;20401;-70
2023/05/01 10:16:37;;;;;;;6.18;2.63;;;16.60;99.90;;;;;;4901696;29;20048;-71
2023/05/01 10:19:04;;;;;;;5.78;2.13;;;;;;;;;;4886081;29;20048;-71
2023/05/01 10:21:34;;;;;;;3.78;2.10;;;16.70;99.90;;;;;;4901879;29;20048;-71
2023/05/01 10:24:02;;;;;;;3.78;2.20;;;;;;;;;;4901693;29;20056;-71
2023/05/01 10:26:28;;;;;;;6.25;2.88;;;;;;;;;;4901463;29;20052;-70
2023/05/01 10:28:57;;;;;;;7.07;2.92;;;16.70;99.90;;;;;;4901377;29;20044;-70
2023/05/01 10:31:24;;;;;;;5.30;2.70;;;;;;;;;;4901252;29;20056;-70
2023/05/01 10:33:51;;;;;;;7.88;2.75;;;;;;;;;;4901461;29;20445;-71
2023/05/01 10:36:27;;;;;;;8.18;2.58;;;16.70;99.90;;;;;;4901356;29;20051;-70
2023/05/01 10:38:53;;;;;;;4.82;2.63;;;17.70;99.90;;;;;;4918486;29;20096;-70
2023/05/01 10:41:57;;;;;;;6.50;2.67;;;17.00;99.90;;;;;;4885592;29;20134;-71
2023/05/01 10:44:25;;;;;;;7.70;2.78;;;17.60;99.90;;;;;;4885386;29;20044;-71
2023/05/01 10:46:51;;;;;;;6.35;2.33;;;;;;;;;;4900000;29;20052;-70
2023/05/01 10:49:17;;;;;;;6.93;2.80;;;16.90;99.90;;;;;;4901030;29;20055;-70
2023/05/01 10:52:03;;;;;;;6.50;2.90;;;17.60;99.90;;;;;;4918040;29;20044;-70
2023/05/01 10:54:32;;;;;;;7.32;2.83;;;17.10;99.90;;;;;;4901265;29;20482;-71
2023/05/01 10:57:02;;;;;;;11.73;2.72;;;17.40;99.90;;;;;;4917775;29;20078;-71
2023/05/01 10:59:48;;;;;;;10.88;3.20;;;;;;;;;;4917798;29;20168;-70
2023/05/01 11:02:24;;;;;;;7.10;2.53;;;16.10;99.90;;;;;;4885611;29;20056;-70
2023/05/01 11:04:52;;;;;;;8.65;2.85;;;;;;;;;;4901070;29;20056;-70
2023/05/01 11:07:19;;;;;;;6.25;2.50;;;16.90;99.90;;;;;;4901106;29;20060;-70
2023/05/01 11:09:47;;;;;;;4.85;2.58;;;16.70;99.90;;;;;;4900615;29;20052;-70
2023/05/01 11:12:32;;;;;;;8.88;2.92;;;16.90;99.90;;;;;;4917528;29;20044;-70
2023/05/01 11:15:02;;;;;;;6.80;2.58;;;;;;;;;;4900666;29;20044;-70
2023/05/01 11:17:40;;;;;;;7.40;2.80;;;;;;;;;;4917759;29;20441;-70
2023/05/01 11:20:10;;;;;;;7.38;2.08;;;16.50;99.90;;;;;;4900762;29;20362;-70
2023/05/01 11:22:41;;;;;;;6.57;2.38;;;17.00;99.90;;;;;;4900536;29;20052;-70
2023/05/01 11:25:35;;;;;;;6.20;3.08;;;16.60;99.90;;;;;;4900551;29;20486;-70
2023/05/01 11:28:05;;;;;;;8.60;2.80;;;16.60;99.90;;;;;;4884969;29;20048;-69
2023/05/01 11:30:40;;;;;;;4.78;2.58;;;17.10;99.90;;;;;;4917296;29;20052;-69
2023/05/01 11:33:07;;;;;;;6.63;3.10;;;;;;;;;;4900320;29;20525;-69
2023/05/01 11:35:33;;;;;;;8.07;3.38;;;;;;;;;;4900330;29;20481;-69
2023/05/01 11:37:59;;;;;;;6.05;3.05;;;;;;;;;;4917407;29;20492;-69
2023/05/01 11:40:30;;;;;;;8.00;3.22;;;16.30;99.90;;;;;;4884741;29;20036;-70
2023/05/01 11:43:00;;;;;;;6.05;2.92;;;16.30;99.90;;;;;;4917045;29;20551;-70
2023/05/01 11:45:26;;;;;;;8.30;2.78;;;;;;;;;;4900296;29;20043;-70
2023/05/01 11:47:52;;;;;;;5.35;3.13;;;16.10;99.90;;;;;;4900117;29;20050;-70
2023/05/01 11:50:20;;;;;;;4.97;2.60;;;;;;;;;;4917669;29;20067;-70
2023/05/01 11:52:52;;;;;;;11.15;3.55;;;;;;;;;;4900371;29;20091;-70
2023/05/01 11:55:18;;;;;;;8.73;3.50;;;15.90;99.90;;;;;;4900088;29;20051;-70
2023/05/01 11:57:49;;;;;;;6.75;3.20;;;16.20;99.90;;;;;;4899668;29;20489;-70
2023/05/01 12:00:33;;;;;;;7.45;3.30;;;16.00;99.90;;;;;;4900066;29;20055;-70
2023/05/01 12:02:59;;;;;;;8.20;4.10;;;;;;;;;;4900020;29;20059;-71
2023/05/01 12:05:27;;;;;;;12.05;4.57;;;15.90;99.90;;;;;;4900015;29;20056;-71
2023/05/01 12:08:25;;;;;;;11.80;4.68;;;15.80;99.90;;;;;;4884573;29;20499;-69
2023/05/01 12:10:54;;;;;;;8.80;5.05;;;15.10;99.90;;;;;;4899313;29;20052;-71
2023/05/01 12:13:21;;;;;;;12.15;4.60;;;;;;;;;;4899872;29;20404;-71
2023/05/01 12:15:51;;;;;;;7.63;4.97;;;16.00;99.90;;;;;;4884470;29;20525;-71
2023/05/01 12:18:17;;;;;;;12.10;5.47;;;;;;;;;;4899774;29;20059;-71
2023/05/01 12:20:49;;;;;;;11.25;5.30;;;16.80;99.90;;;;;;4916712;29;20493;-70
2023/05/01 12:23:15;;;;;;;11.48;5.78;;;16.60;99.90;;;;;;4884671;29;20032;-71
2023/05/01 12:25:42;;;;;;;12.35;5.90;;;;;;;;;;4900210;29;20062;-70
2023/05/01 12:28:18;;;;;;;8.25;5.53;;;15.70;99.90;;;;;;4900037;29;20493;-70
2023/05/01 12:30:45;;;;;;;11.52;6.15;;;;;;;;;;4884029;29;20522;-69
2023/05/01 12:33:18;;;;;;;13.43;6.32;;;15.80;99.90;;;;;;4899756;29;20095;-69
2023/05/01 12:35:46;;;;;;;11.27;6.68;;;15.80;99.90;;;;;;4899855;29;20040;-69
2023/05/01 12:38:17;;;;;;;11.77;6.53;;;15.80;99.90;;;;;;4899709;29;20084;-69
2023/05/01 12:41:10;;;;;;;13.35;7.03;;;15.80;99.90;;;;;;4899949;29;20107;-69
2023/05/01 12:43:37;;;;;;;10.85;7.03;;;;;;;;;;4896891;29;20090;-69
2023/05/01 12:46:04;;;;;;;11.30;6.47;;;15.80;99.90;;;;;;4884137;29;20044;-69
2023/05/01 12:48:32;;;;;;;11.57;7.22;;;;;;;;;;4899748;29;20062;-69
2023/05/01 12:50:59;;;;;;;11.38;7.18;;;15.50;99.90;;;;;;4916606;29;20119;-69
2023/05/01 12:53:27;;;;;;;14.82;7.90;;;15.60;99.90;;;;;;4899481;29;20044;-69
2023/05/01 12:55:55;;;;;;;12.70;6.93;;;15.60;99.90;;;;;;4899540;29;20040;-69
2023/05/01 12:58:21;;;;;;;14.15;7.20;;;;;;;;;;4899520;29;20079;-69
2023/05/01 13:00:48;;;;;;;11.60;7.05;;;;;;;;;;4916682;29;20052;-69
2023/05/01 13:03:16;;;;;;;12.55;7.57;;;;;;;;;;4899743;29;20055;-69
2023/05/01 13:05:53;;;;;;;12.77;7.45;;;15.80;99.90;;;;;;4899770;29;20123;-69
2023/05/01 13:08:28;;;;;;;11.05;7.30;;;16.60;99.90;;;;;;4899418;29;20128;-69
2023/05/01 13:11:08;;;;;;;12.25;7.10;;;15.80;99.90;;;;;;4918584;29;20036;-69
2023/05/01 13:13:36;;;;;;;16.90;8.07;;;15.70;99.90;;;;;;4887350;29;20481;-69
2023/05/01 13:16:07;;;;;;;12.25;7.40;;;16.50;99.90;;;;;;4903264;29;20161;-69
2023/05/01 13:18:41;;;;;;;13.73;8.00;;;15.80;99.90;;;;;;4919996;29;20048;-69
2023/05/01 13:21:12;;;;;;;13.45;7.85;;;15.70;99.90;;;;;;4903133;29;20067;-69
2023/05/01 13:23:39;;;;;;;13.63;7.55;;;;;;;;;;4902859;29;20469;-69
2023/05/01 13:26:06;;;;;;;11.18;7.30;;;16.40;99.90;;;;;;4902501;29;20075;-68
2023/05/01 13:28:41;;;;;;;13.85;7.80;;;16.00;99.90;;;;;;4919612;29;20048;-69
2023/05/01 13:31:13;;;;;;;14.38;8.15;;;16.30;99.90;;;;;;4902424;29;20060;-68
2023/05/01 13:33:41;;;;;;;14.85;7.68;;;16.60;99.90;;;;;;4902491;29;20043;-68
2023/05/01 13:36:13;;;;;;;15.02;8.38;;;16.50;99.90;;;;;;4919340;29;20043;-68
2023/05/01 13:38:44;;;;;;;13.57;8.97;;;;;;;;;;4902270;29;20102;-68
2023/05/01 13:41:18;;;;;;;23.23;9.73;;;15.90;99.90;;;;;;4919382;29;20051;-69
2023/05/01 13:43:44;;;;;;;60.55;11.30;;;;;;;;;;4902251;29;20055;-68
2023/05/01 13:46:13;;;;;;;17.73;8.70;;;16.00;99.90;;;;;;4902123;29;20048;-68
2023/05/01 13:48:40;;;;;;;11.98;9.00;;;;;;;;;;4902110;29;20048;-68
2023/05/01 13:51:07;;;;;;;17.05;8.40;;;15.50;99.90;;;;;;4902465;29;20127;-68
2023/05/01 13:53:33;;;;;;;15.35;8.23;;;;;;;;;;4902029;29;20059;-69
2023/05/01 13:55:59;;;;;;;14.80;8.48;;;;;;;;;;4902050;29;20119;-68
2023/05/01 13:58:28;;;;;;;12.10;8.25;;;15.60;99.90;;;;;;4902136;29;20048;-68
2023/05/01 14:00:54;;;;;;;15.00;8.80;;;;;;;;;;4901928;29;20123;-68
2023/05/01 14:03:21;;;;;;;26.67;9.70;;;;;;;;;;4918937;29;20044;-68
2023/05/01 14:05:47;;;;;;;19.10;9.00;;;15.50;99.90;;;;;;4902067;29;20066;-68